sensor_id;sensor_type;location;lat;lon;timestamp;pressure;altitude;pressure_sealevel;temperature;humidity
80620;BME280;69979;53.682;-2.690;2024-01-16T00:00:42;100783.13;;;2.08;37.84
80620;BME280;69979;53.682;-2.690;2024-01-16T00:03:07;100781.54;;;2.55;36.57
80620;BME280;69979;53.682;-2.690;2024-01-16T00:05:33;100781.24;;;3.22;36.60
80620;BME280;69979;53.682;-2.690;2024-01-16T00:07:58;100776.97;;;4.01;36.01
80620;BME280;69979;53.682;-2.690;2024-01-16T00:10:23;100776.08;;;2.75;36.40
80620;BME280;69979;53.682;-2.690;2024-01-16T00:12:49;100771.24;;;3.34;35.78
80620;BME280;69979;53.682;-2.690;2024-01-16T00:15:14;100772.23;;;2.81;36.33
80620;BME280;69979;53.682;-2.690;2024-01-16T00:17:39;100769.19;;;2.26;37.11
80620;BME280;69979;53.682;-2.690;2024-01-16T00:20:06;100767.32;;;2.32;37.11
80620;BME280;69979;53.682;-2.690;2024-01-16T00:22:30;100760.75;;;3.26;35.93
80620;BME280;69979;53.682;-2.690;2024-01-16T00:24:56;100755.60;;;3.89;35.39
80620;BME280;69979;53.682;-2.690;2024-01-16T00:27:21;100751.84;;;2.42;36.71
80620;BME280;69979;53.682;-2.690;2024-01-16T00:29:47;100747.65;;;2.82;36.89
80620;BME280;69979;53.682;-2.690;2024-01-16T00:32:11;100745.38;;;1.92;37.50
80620;BME280;69979;53.682;-2.690;2024-01-16T00:34:36;100738.37;;;2.20;37.81
80620;BME280;69979;53.682;-2.690;2024-01-16T00:37:01;100735.59;;;1.51;38.26
80620;BME280;69979;53.682;-2.690;2024-01-16T00:39:27;100737.55;;;1.14;38.36
80620;BME280;69979;53.682;-2.690;2024-01-16T00:41:52;100738.44;;;1.77;37.72
80620;BME280;69979;53.682;-2.690;2024-01-16T00:44:17;100737.75;;;2.10;37.89
80620;BME280;69979;53.682;-2.690;2024-01-16T00:46:42;100733.56;;;1.67;38.29
80620;BME280;69979;53.682;-2.690;2024-01-16T00:49:07;100734.92;;;1.44;38.11
80620;BME280;69979;53.682;-2.690;2024-01-16T00:51:32;100735.31;;;2.17;37.78
80620;BME280;69979;53.682;-2.690;2024-01-16T00:53:59;100729.09;;;1.24;38.82
80620;BME280;69979;53.682;-2.690;2024-01-16T00:56:24;100728.40;;;2.14;38.12
80620;BME280;69979;53.682;-2.690;2024-01-16T00:58:49;100727.55;;;1.99;38.22
80620;BME280;69979;53.682;-2.690;2024-01-16T01:01:14;100726.58;;;2.08;38.17
80620;BME280;69979;53.682;-2.690;2024-01-16T01:03:39;100724.87;;;1.92;38.18
80620;BME280;69979;53.682;-2.690;2024-01-16T01:06:05;100720.44;;;2.02;37.96
80620;BME280;69979;53.682;-2.690;2024-01-16T01:08:30;100720.72;;;2.90;37.32
80620;BME280;69979;53.682;-2.690;2024-01-16T01:10:55;100721.91;;;2.39;37.46
80620;BME280;69979;53.682;-2.690;2024-01-16T01:13:21;100723.68;;;1.50;39.07
80620;BME280;69979;53.682;-2.690;2024-01-16T01:15:47;100717.55;;;2.40;38.10
80620;BME280;69979;53.682;-2.690;2024-01-16T01:18:12;100717.04;;;2.16;38.43
80620;BME280;69979;53.682;-2.690;2024-01-16T01:20:37;100713.93;;;1.26;39.21
80620;BME280;69979;53.682;-2.690;2024-01-16T01:23:03;100714.42;;;0.50;41.15
80620;BME280;69979;53.682;-2.690;2024-01-16T01:25:28;100715.05;;;-0.00;42.63
80620;BME280;69979;53.682;-2.690;2024-01-16T01:27:53;100708.09;;;0.96;40.86
80620;BME280;69979;53.682;-2.690;2024-01-16T01:30:18;100701.44;;;2.01;39.24
80620;BME280;69979;53.682;-2.690;2024-01-16T01:32:43;100697.05;;;1.50;40.14
80620;BME280;69979;53.682;-2.690;2024-01-16T01:35:09;100694.87;;;1.21;40.52
80620;BME280;69979;53.682;-2.690;2024-01-16T01:37:35;100696.92;;;0.24;41.44
80620;BME280;69979;53.682;-2.690;2024-01-16T01:40:00;100689.32;;;0.82;40.97
80620;BME280;69979;53.682;-2.690;2024-01-16T01:42:25;100687.02;;;0.92;40.78
80620;BME280;69979;53.682;-2.690;2024-01-16T01:44:51;100683.80;;;0.45;41.26
80620;BME280;69979;53.682;-2.690;2024-01-16T01:47:16;100685.85;;;0.05;42.31
80620;BME280;69979;53.682;-2.690;2024-01-16T01:49:42;100679.09;;;-0.71;43.45
80620;BME280;69979;53.682;-2.690;2024-01-16T01:52:08;100680.08;;;0.27;42.40
80620;BME280;69979;53.682;-2.690;2024-01-16T01:54:33;100676.86;;;0.59;41.90
80620;BME280;69979;53.682;-2.690;2024-01-16T01:56:57;100672.26;;;0.64;41.56
80620;BME280;69979;53.682;-2.690;2024-01-16T01:59:23;100668.94;;;0.99;41.18
80620;BME280;69979;53.682;-2.690;2024-01-16T02:01:50;100665.15;;;1.17;40.52
80620;BME280;69979;53.682;-2.690;2024-01-16T02:04:14;100665.81;;;1.24;40.49
80620;BME280;69979;53.682;-2.690;2024-01-16T02:06:39;100659.30;;;1.43;39.93
80620;BME280;69979;53.682;-2.690;2024-01-16T02:09:05;100660.45;;;2.57;38.50
80620;BME280;69979;53.682;-2.690;2024-01-16T02:11:30;100658.75;;;1.27;39.57
80620;BME280;69979;53.682;-2.690;2024-01-16T02:13:55;100650.85;;;1.30;39.97
80620;BME280;69979;53.682;-2.690;2024-01-16T02:16:22;100652.42;;;0.49;41.24
80620;BME280;69979;53.682;-2.690;2024-01-16T02:18:46;100647.76;;;1.57;40.58
80620;BME280;69979;53.682;-2.690;2024-01-16T02:21:12;100648.71;;;1.26;40.32
80620;BME280;69979;53.682;-2.690;2024-01-16T02:23:36;100646.30;;;1.90;39.61
80620;BME280;69979;53.682;-2.690;2024-01-16T02:26:03;100642.34;;;1.84;39.59
80620;BME280;69979;53.682;-2.690;2024-01-16T02:28:27;100642.40;;;1.81;40.01
80620;BME280;69979;53.682;-2.690;2024-01-16T02:30:52;100639.72;;;1.64;40.47
80620;BME280;69979;53.682;-2.690;2024-01-16T02:33:18;100637.21;;;1.01;41.13
80620;BME280;69979;53.682;-2.690;2024-01-16T02:35:43;100629.93;;;0.67;42.91
80620;BME280;69979;53.682;-2.690;2024-01-16T02:38:08;100634.01;;;-0.45;45.33
80620;BME280;69979;53.682;-2.690;2024-01-16T02:40:33;100626.44;;;1.36;43.08
80620;BME280;69979;53.682;-2.690;2024-01-16T02:42:59;100623.10;;;1.97;42.17
80620;BME280;69979;53.682;-2.690;2024-01-16T02:45:25;100620.94;;;2.18;41.29
80620;BME280;69979;53.682;-2.690;2024-01-16T02:47:50;100624.84;;;1.44;42.38
80620;BME280;69979;53.682;-2.690;2024-01-16T02:50:15;100623.45;;;1.95;41.68
80620;BME280;69979;53.682;-2.690;2024-01-16T02:52:41;100613.03;;;0.48;44.58
80620;BME280;69979;53.682;-2.690;2024-01-16T02:55:07;100620.20;;;-0.26;46.74
80620;BME280;69979;53.682;-2.690;2024-01-16T02:57:32;100616.81;;;-0.89;48.44
80620;BME280;69979;53.682;-2.690;2024-01-16T02:59:58;100616.82;;;-0.20;47.90
80620;BME280;69979;53.682;-2.690;2024-01-16T03:02:23;100609.98;;;0.25;46.83
80620;BME280;69979;53.682;-2.690;2024-01-16T03:04:49;100607.91;;;0.60;45.89
80620;BME280;69979;53.682;-2.690;2024-01-16T03:07:13;100613.87;;;0.17;47.20
80620;BME280;69979;53.682;-2.690;2024-01-16T03:09:39;100609.35;;;0.31;47.32
80620;BME280;69979;53.682;-2.690;2024-01-16T03:12:05;100608.42;;;-0.54;48.79
80620;BME280;69979;53.682;-2.690;2024-01-16T03:14:29;100609.65;;;-0.16;49.31
80620;BME280;69979;53.682;-2.690;2024-01-16T03:16:55;100608.50;;;-0.35;49.52
80620;BME280;69979;53.682;-2.690;2024-01-16T03:19:20;100603.87;;;-0.87;50.54
80620;BME280;69979;53.682;-2.690;2024-01-16T03:21:45;100600.74;;;-0.02;49.41
80620;BME280;69979;53.682;-2.690;2024-01-16T03:24:11;100595.86;;;0.40;48.38
80620;BME280;69979;53.682;-2.690;2024-01-16T03:26:36;100595.31;;;0.20;48.87
80620;BME280;69979;53.682;-2.690;2024-01-16T03:29:01;100594.30;;;-0.11;49.59
80620;BME280;69979;53.682;-2.690;2024-01-16T03:31:27;100589.62;;;0.90;48.07
80620;BME280;69979;53.682;-2.690;2024-01-16T03:33:52;100585.82;;;0.97;47.75
80620;BME280;69979;53.682;-2.690;2024-01-16T03:36:18;100587.41;;;0.17;49.63
80620;BME280;69979;53.682;-2.690;2024-01-16T03:38:43;100582.40;;;0.23;50.13
80620;BME280;69979;53.682;-2.690;2024-01-16T03:41:10;100579.03;;;1.32;48.51
80620;BME280;69979;53.682;-2.690;2024-01-16T03:43:34;100578.94;;;0.18;50.42
80620;BME280;69979;53.682;-2.690;2024-01-16T03:46:00;100582.54;;;-0.69;52.50
80620;BME280;69979;53.682;-2.690;2024-01-16T03:48:25;100575.20;;;0.02;51.87
80620;BME280;69979;53.682;-2.690;2024-01-16T03:50:50;100574.20;;;0.34;52.48
80620;BME280;69979;53.682;-2.690;2024-01-16T03:53:15;100567.47;;;0.44;51.32
80620;BME280;69979;53.682;-2.690;2024-01-16T03:55:41;100562.30;;;0.70;51.55
80620;BME280;69979;53.682;-2.690;2024-01-16T03:58:06;100563.29;;;0.80;50.81
80620;BME280;69979;53.682;-2.690;2024-01-16T04:00:31;100560.22;;;0.24;51.79
80620;BME280;69979;53.682;-2.690;2024-01-16T04:02:57;100558.19;;;1.10;51.10
80620;BME280;69979;53.682;-2.690;2024-01-16T04:05:23;100552.83;;;-0.48;54.37
80620;BME280;69979;53.682;-2.690;2024-01-16T04:07:48;100550.85;;;-0.07;54.73
80620;BME280;69979;53.682;-2.690;2024-01-16T04:10:13;100544.66;;;-1.18;58.93
80620;BME280;69979;53.682;-2.690;2024-01-16T04:12:38;100542.81;;;-0.98;58.90
80620;BME280;69979;53.682;-2.690;2024-01-16T04:15:04;100542.93;;;-0.61;58.09
80620;BME280;69979;53.682;-2.690;2024-01-16T04:17:28;100536.48;;;0.03;55.98
80620;BME280;69979;53.682;-2.690;2024-01-16T04:19:53;100541.32;;;1.16;53.36
80620;BME280;69979;53.682;-2.690;2024-01-16T04:22:19;100539.68;;;1.61;52.43
80620;BME280;69979;53.682;-2.690;2024-01-16T04:24:45;100543.97;;;2.55;50.06
80620;BME280;69979;53.682;-2.690;2024-01-16T04:27:11;100537.97;;;2.85;49.10
80620;BME280;69979;53.682;-2.690;2024-01-16T04:29:36;100536.65;;;2.69;48.53
80620;BME280;69979;53.682;-2.690;2024-01-16T04:32:00;100533.00;;;2.82;48.69
80620;BME280;69979;53.682;-2.690;2024-01-16T04:34:26;100524.85;;;2.48;49.39
80620;BME280;69979;53.682;-2.690;2024-01-16T04:36:51;100520.63;;;2.18;49.26
80620;BME280;69979;53.682;-2.690;2024-01-16T04:39:17;100515.83;;;2.46;50.54
80620;BME280;69979;53.682;-2.690;2024-01-16T04:41:42;100523.38;;;3.22;48.71
80620;BME280;69979;53.682;-2.690;2024-01-16T04:44:08;100518.43;;;2.86;49.03
80620;BME280;69979;53.682;-2.690;2024-01-16T04:46:33;100515.70;;;1.82;51.63
80620;BME280;69979;53.682;-2.690;2024-01-16T04:48:59;100509.92;;;1.91;50.60
80620;BME280;69979;53.682;-2.690;2024-01-16T04:51:23;100507.41;;;2.04;50.91
80620;BME280;69979;53.682;-2.690;2024-01-16T04:53:49;100504.92;;;2.81;49.36
80620;BME280;69979;53.682;-2.690;2024-01-16T04:56:14;100504.92;;;1.77;51.46
80620;BME280;69979;53.682;-2.690;2024-01-16T04:58:39;100503.71;;;1.40;53.43
80620;BME280;69979;53.682;-2.690;2024-01-16T05:01:05;100500.73;;;2.06;52.05
80620;BME280;69979;53.682;-2.690;2024-01-16T05:03:30;100498.75;;;2.78;51.08
80620;BME280;69979;53.682;-2.690;2024-01-16T05:05:55;100494.83;;;3.13;50.22
80620;BME280;69979;53.682;-2.690;2024-01-16T05:08:21;100499.53;;;3.09;50.72
80620;BME280;69979;53.682;-2.690;2024-01-16T05:10:46;100497.46;;;2.79;50.85
80620;BME280;69979;53.682;-2.690;2024-01-16T05:13:11;100490.65;;;1.75;53.94
80620;BME280;69979;53.682;-2.690;2024-01-16T05:15:36;100487.66;;;2.34;53.42
80620;BME280;69979;53.682;-2.690;2024-01-16T05:18:02;100484.38;;;2.87;52.00
80620;BME280;69979;53.682;-2.690;2024-01-16T05:20:27;100481.45;;;2.34;52.55
80620;BME280;69979;53.682;-2.690;2024-01-16T05:22:52;100479.99;;;2.94;51.08
80620;BME280;69979;53.682;-2.690;2024-01-16T05:25:17;100481.60;;;2.50;51.92
80620;BME280;69979;53.682;-2.690;2024-01-16T05:27:42;100481.79;;;1.79;52.78
80620;BME280;69979;53.682;-2.690;2024-01-16T05:30:08;100484.79;;;1.79;54.32
80620;BME280;69979;53.682;-2.690;2024-01-16T05:32:32;100481.02;;;0.67;57.10
80620;BME280;69979;53.682;-2.690;2024-01-16T05:34:57;100479.90;;;0.51;58.81
80620;BME280;69979;53.682;-2.690;2024-01-16T05:37:23;100476.12;;;1.45;57.34
80620;BME280;69979;53.682;-2.690;2024-01-16T05:39:49;100472.30;;;1.02;56.89
80620;BME280;69979;53.682;-2.690;2024-01-16T05:42:14;100468.08;;;1.34;56.78
80620;BME280;69979;53.682;-2.690;2024-01-16T05:44:40;100465.50;;;0.36;58.25
80620;BME280;69979;53.682;-2.690;2024-01-16T05:47:05;100456.00;;;1.00;56.77
80620;BME280;69979;53.682;-2.690;2024-01-16T05:49:31;100450.84;;;1.60;55.49
80620;BME280;69979;53.682;-2.690;2024-01-16T05:51:56;100449.81;;;0.98;56.74
80620;BME280;69979;53.682;-2.690;2024-01-16T05:54:21;100448.89;;;1.42;57.37
80620;BME280;69979;53.682;-2.690;2024-01-16T05:56:46;100450.59;;;0.59;58.92
80620;BME280;69979;53.682;-2.690;2024-01-16T05:59:12;100448.09;;;0.23;59.57
80620;BME280;69979;53.682;-2.690;2024-01-16T06:01:37;100447.29;;;1.90;56.47
80620;BME280;69979;53.682;-2.690;2024-01-16T06:04:02;100441.71;;;2.54;54.60
80620;BME280;69979;53.682;-2.690;2024-01-16T06:06:28;100437.59;;;2.06;55.40
80620;BME280;69979;53.682;-2.690;2024-01-16T06:08:54;100438.15;;;1.34;56.51
80620;BME280;69979;53.682;-2.690;2024-01-16T06:11:18;100435.07;;;1.29;57.29
80620;BME280;69979;53.682;-2.690;2024-01-16T06:13:43;100434.11;;;1.43;57.29
80620;BME280;69979;53.682;-2.690;2024-01-16T06:16:10;100427.53;;;1.57;56.51
80620;BME280;69979;53.682;-2.690;2024-01-16T06:18:34;100422.25;;;1.57;56.47
80620;BME280;69979;53.682;-2.690;2024-01-16T06:21:00;100420.49;;;2.14;55.20
80620;BME280;69979;53.682;-2.690;2024-01-16T06:23:25;100415.57;;;0.84;58.01
80620;BME280;69979;53.682;-2.690;2024-01-16T06:25:51;100410.53;;;0.27;59.38
80620;BME280;69979;53.682;-2.690;2024-01-16T06:28:16;100408.04;;;-0.26;60.92
80620;BME280;69979;53.682;-2.690;2024-01-16T06:30:41;100403.44;;;0.38;61.25
80620;BME280;69979;53.682;-2.690;2024-01-16T06:33:06;100397.08;;;-0.11;62.89
80620;BME280;69979;53.682;-2.690;2024-01-16T06:35:32;100387.10;;;0.11;61.85
80620;BME280;69979;53.682;-2.690;2024-01-16T06:37:57;100388.72;;;0.32;61.07
80620;BME280;69979;53.682;-2.690;2024-01-16T06:40:23;100387.15;;;0.90;59.58
80620;BME280;69979;53.682;-2.690;2024-01-16T06:42:48;100388.72;;;0.82;59.30
80620;BME280;69979;53.682;-2.690;2024-01-16T06:45:13;100386.41;;;-0.02;60.95
80620;BME280;69979;53.682;-2.690;2024-01-16T06:47:38;100378.95;;;-1.13;65.65
80620;BME280;69979;53.682;-2.690;2024-01-16T06:50:05;100376.02;;;-0.31;63.20
80620;BME280;69979;53.682;-2.690;2024-01-16T06:52:29;100370.95;;;-0.46;65.07
80620;BME280;69979;53.682;-2.690;2024-01-16T06:54:55;100372.94;;;0.29;62.47
80620;BME280;69979;53.682;-2.690;2024-01-16T06:57:20;100369.81;;;-0.94;64.84
80620;BME280;69979;53.682;-2.690;2024-01-16T06:59:45;100364.52;;;-0.27;64.19
80620;BME280;69979;53.682;-2.690;2024-01-16T07:02:10;100362.50;;;-0.43;63.67
80620;BME280;69979;53.682;-2.690;2024-01-16T07:04:36;100363.78;;;-0.35;64.27
80620;BME280;69979;53.682;-2.690;2024-01-16T07:07:01;100360.76;;;-0.05;63.64
80620;BME280;69979;53.682;-2.690;2024-01-16T07:09:26;100355.09;;;0.69;61.45
80620;BME280;69979;53.682;-2.690;2024-01-16T07:11:52;100348.84;;;0.96;60.49
80620;BME280;69979;53.682;-2.690;2024-01-16T07:14:17;100354.43;;;0.49;59.64
80620;BME280;69979;53.682;-2.690;2024-01-16T07:16:42;100349.56;;;0.82;59.81
80620;BME280;69979;53.682;-2.690;2024-01-16T07:19:07;100351.77;;;0.90;59.32
80620;BME280;69979;53.682;-2.690;2024-01-16T07:21:33;100346.05;;;0.67;60.42
80620;BME280;69979;53.682;-2.690;2024-01-16T07:23:58;100336.29;;;1.21;58.31
80620;BME280;69979;53.682;-2.690;2024-01-16T07:26:24;100335.06;;;0.65;60.68
80620;BME280;69979;53.682;-2.690;2024-01-16T07:28:49;100328.82;;;1.22;58.55
80620;BME280;69979;53.682;-2.690;2024-01-16T07:31:14;100331.11;;;1.79;56.85
80620;BME280;69979;53.682;-2.690;2024-01-16T07:33:40;100332.64;;;1.78;57.39
80620;BME280;69979;53.682;-2.690;2024-01-16T07:36:07;100331.78;;;2.72;55.33
80620;BME280;69979;53.682;-2.690;2024-01-16T07:38:30;100334.05;;;1.60;56.64
80620;BME280;69979;53.682;-2.690;2024-01-16T07:40:57;100336.13;;;1.85;56.75
80620;BME280;69979;53.682;-2.690;2024-01-16T07:43:21;100330.88;;;2.31;56.06
80620;BME280;69979;53.682;-2.690;2024-01-16T07:45:47;100326.61;;;2.82;54.45
80620;BME280;69979;53.682;-2.690;2024-01-16T07:48:13;100320.47;;;0.43;60.40
80620;BME280;69979;53.682;-2.690;2024-01-16T07:50:38;100328.19;;;0.07;61.41
80620;BME280;69979;53.682;-2.690;2024-01-16T07:53:04;100326.15;;;0.88;59.62
80620;BME280;69979;53.682;-2.690;2024-01-16T07:55:29;100317.86;;;1.46;58.24
80620;BME280;69979;53.682;-2.690;2024-01-16T07:57:55;100318.57;;;0.80;59.59
80620;BME280;69979;53.682;-2.690;2024-01-16T08:00:21;100321.12;;;0.85;59.04
80620;BME280;69979;53.682;-2.690;2024-01-16T08:02:46;100314.24;;;1.61;57.25
80620;BME280;69979;53.682;-2.690;2024-01-16T08:05:12;100317.29;;;0.96;58.32
80620;BME280;69979;53.682;-2.690;2024-01-16T08:07:37;100317.53;;;0.42;59.99
80620;BME280;69979;53.682;-2.690;2024-01-16T08:10:03;100313.40;;;0.20;61.31
80620;BME280;69979;53.682;-2.690;2024-01-16T08:12:28;100305.83;;;-0.69;63.44
80620;BME280;69979;53.682;-2.690;2024-01-16T08:14:53;100309.18;;;-0.09;62.61
80620;BME280;69979;53.682;-2.690;2024-01-16T08:17:19;100303.03;;;0.46;62.11
80620;BME280;69979;53.682;-2.690;2024-01-16T08:19:44;100294.96;;;0.34;62.07
80620;BME280;69979;53.682;-2.690;2024-01-16T08:22:09;100291.92;;;-0.70;65.17
80620;BME280;69979;53.682;-2.690;2024-01-16T08:24:35;100296.44;;;-0.12;64.49
80620;BME280;69979;53.682;-2.690;2024-01-16T08:27:00;100287.21;;;0.79;61.84
80620;BME280;69979;53.682;-2.690;2024-01-16T08:29:26;100289.86;;;0.55;61.68
80620;BME280;69979;53.682;-2.690;2024-01-16T08:31:51;100288.80;;;1.84;59.03
80620;BME280;69979;53.682;-2.690;2024-01-16T08:34:17;100280.37;;;1.02;58.65
80620;BME280;69979;53.682;-2.690;2024-01-16T08:36:43;100277.21;;;2.36;57.50
80620;BME280;69979;53.682;-2.690;2024-01-16T08:39:08;100278.44;;;0.40;60.45
80620;BME280;69979;53.682;-2.690;2024-01-16T08:41:33;100278.67;;;1.52;58.45
80620;BME280;69979;53.682;-2.690;2024-01-16T08:43:59;100278.44;;;1.17;59.55
80620;BME280;69979;53.682;-2.690;2024-01-16T08:46:23;100274.43;;;0.13;61.24
80620;BME280;69979;53.682;-2.690;2024-01-16T08:48:49;100280.58;;;0.65;61.26
80620;BME280;69979;53.682;-2.690;2024-01-16T08:51:14;100263.88;;;-0.06;63.15
80620;BME280;69979;53.682;-2.690;2024-01-16T08:53:40;100264.04;;;0.29;63.03
80620;BME280;69979;53.682;-2.690;2024-01-16T08:56:05;100251.17;;;0.94;60.90
80620;BME280;69979;53.682;-2.690;2024-01-16T08:58:31;100254.56;;;1.88;59.29
80620;BME280;69979;53.682;-2.690;2024-01-16T09:00:56;100249.95;;;0.30;62.51
80620;BME280;69979;53.682;-2.690;2024-01-16T09:03:22;100250.11;;;1.12;60.72
80620;BME280;69979;53.682;-2.690;2024-01-16T09:05:48;100250.84;;;0.99;60.40
80620;BME280;69979;53.682;-2.690;2024-01-16T09:08:13;100247.82;;;1.22;60.15
80620;BME280;69979;53.682;-2.690;2024-01-16T09:10:38;100242.69;;;0.62;61.53
80620;BME280;69979;53.682;-2.690;2024-01-16T09:13:04;100239.17;;;0.02;63.79
80620;BME280;69979;53.682;-2.690;2024-01-16T09:15:30;100234.11;;;-0.22;64.59
80620;BME280;69979;53.682;-2.690;2024-01-16T09:17:55;100229.06;;;0.15;64.19
80620;BME280;69979;53.682;-2.690;2024-01-16T09:20:21;100226.34;;;-0.33;66.26
80620;BME280;69979;53.682;-2.690;2024-01-16T09:22:46;100225.94;;;0.36;64.31
80620;BME280;69979;53.682;-2.690;2024-01-16T09:25:12;100223.99;;;0.54;62.86
80620;BME280;69979;53.682;-2.690;2024-01-16T09:27:37;100225.94;;;1.11;61.09
80620;BME280;69979;53.682;-2.690;2024-01-16T09:30:03;100224.66;;;1.09;61.26
80620;BME280;69979;53.682;-2.690;2024-01-16T09:32:27;100225.71;;;1.65;59.41
80620;BME280;69979;53.682;-2.690;2024-01-16T09:34:52;100219.69;;;1.54;60.79
80620;BME280;69979;53.682;-2.690;2024-01-16T09:37:17;100214.78;;;1.18;61.47
80620;BME280;69979;53.682;-2.690;2024-01-16T09:39:43;100207.26;;;0.66;62.32
80620;BME280;69979;53.682;-2.690;2024-01-16T09:42:08;100204.53;;;0.91;62.58
80620;BME280;69979;53.682;-2.690;2024-01-16T09:44:34;100200.43;;;1.00;61.98
80620;BME280;69979;53.682;-2.690;2024-01-16T09:47:01;100197.93;;;0.97;62.02
80620;BME280;69979;53.682;-2.690;2024-01-16T09:49:25;100193.61;;;0.89;62.32
80620;BME280;69979;53.682;-2.690;2024-01-16T09:51:50;100197.39;;;1.12;61.86
80620;BME280;69979;53.682;-2.690;2024-01-16T09:54:16;100195.38;;;1.97;59.88
80620;BME280;69979;53.682;-2.690;2024-01-16T09:56:43;100190.22;;;1.72;59.87
80620;BME280;69979;53.682;-2.690;2024-01-16T09:59:09;100182.95;;;2.34;59.09
80620;BME280;69979;53.682;-2.690;2024-01-16T10:01:33;100180.64;;;2.80;58.27
80620;BME280;69979;53.682;-2.690;2024-01-16T10:03:58;100183.41;;;2.91;56.97
80620;BME280;69979;53.682;-2.690;2024-01-16T10:06:23;100179.98;;;2.44;56.47
80620;BME280;69979;53.682;-2.690;2024-01-16T10:08:49;100174.22;;;2.06;57.86
80620;BME280;69979;53.682;-2.690;2024-01-16T10:11:14;100175.52;;;3.56;55.17
80620;BME280;69979;53.682;-2.690;2024-01-16T10:13:40;100171.70;;;3.49;55.07
80620;BME280;69979;53.682;-2.690;2024-01-16T10:16:05;100172.76;;;2.46;56.65
80620;BME280;69979;53.682;-2.690;2024-01-16T10:18:31;100163.53;;;2.02;59.53
80620;BME280;69979;53.682;-2.690;2024-01-16T10:20:56;100159.03;;;1.52;59.98
80620;BME280;69979;53.682;-2.690;2024-01-16T10:23:23;100151.46;;;2.18;58.73
80620;BME280;69979;53.682;-2.690;2024-01-16T10:28:12;100150.07;;;2.24;59.63
80620;BME280;69979;53.682;-2.690;2024-01-16T10:30:38;100157.42;;;1.67;60.49
80620;BME280;69979;53.682;-2.690;2024-01-16T10:33:12;100155.78;;;2.26;58.57
80620;BME280;69979;53.682;-2.690;2024-01-16T10:35:28;100155.21;;;2.62;57.30
80620;BME280;69979;53.682;-2.690;2024-01-16T10:37:55;100158.14;;;1.65;59.98
80620;BME280;69979;53.682;-2.690;2024-01-16T10:40:20;100149.89;;;2.21;59.20
80620;BME280;69979;53.682;-2.690;2024-01-16T10:42:44;100151.63;;;1.89;59.86
80620;BME280;69979;53.682;-2.690;2024-01-16T10:45:17;100141.30;;;1.99;60.00
80620;BME280;69979;53.682;-2.690;2024-01-16T10:47:35;100140.38;;;1.21;60.66
80620;BME280;69979;53.682;-2.690;2024-01-16T10:50:01;100136.82;;;1.68;60.48
80620;BME280;69979;53.682;-2.690;2024-01-16T10:52:28;100132.73;;;2.00;59.92
80620;BME280;69979;53.682;-2.690;2024-01-16T10:54:52;100124.84;;;2.06;59.09
80620;BME280;69979;53.682;-2.690;2024-01-16T10:57:17;100120.72;;;1.51;59.36
80620;BME280;69979;53.682;-2.690;2024-01-16T10:59:48;100116.80;;;2.78;58.11
80620;BME280;69979;53.682;-2.690;2024-01-16T11:02:09;100117.03;;;1.39;61.22
80620;BME280;69979;53.682;-2.690;2024-01-16T11:04:33;100112.77;;;2.50;58.62
80620;BME280;69979;53.682;-2.690;2024-01-16T11:06:59;100104.34;;;1.88;60.52
80620;BME280;69979;53.682;-2.690;2024-01-16T11:09:24;100099.75;;;2.50;58.85
80620;BME280;69979;53.682;-2.690;2024-01-16T11:11:50;100092.99;;;2.09;59.59
80620;BME280;69979;53.682;-2.690;2024-01-16T11:14:15;100088.57;;;2.06;60.39
80620;BME280;69979;53.682;-2.690;2024-01-16T11:16:40;100090.11;;;1.24;62.40
80620;BME280;69979;53.682;-2.690;2024-01-16T11:19:08;100088.11;;;1.18;63.00
80620;BME280;69979;53.682;-2.690;2024-01-16T11:21:30;100074.55;;;1.82;61.37
80620;BME280;69979;53.682;-2.690;2024-01-16T11:23:55;100070.38;;;1.58;61.29
80620;BME280;69979;53.682;-2.690;2024-01-16T11:26:26;100070.52;;;1.02;62.64
80620;BME280;69979;53.682;-2.690;2024-01-16T11:28:45;100069.42;;;1.11;63.74
80620;BME280;69979;53.682;-2.690;2024-01-16T11:33:42;100048.57;;;1.06;64.05
80620;BME280;69979;53.682;-2.690;2024-01-16T11:36:01;100041.24;;;0.94;64.72
80620;BME280;69979;53.682;-2.690;2024-01-16T11:38:26;100036.92;;;1.32;63.79
80620;BME280;69979;53.682;-2.690;2024-01-16T11:40:51;100023.51;;;1.30;62.34
80620;BME280;69979;53.682;-2.690;2024-01-16T11:45:49;100009.71;;;1.35;63.63
80620;BME280;69979;53.682;-2.690;2024-01-16T11:48:09;100000.82;;;1.40;62.81
80620;BME280;69979;53.682;-2.690;2024-01-16T11:50:32;99994.74;;;1.11;62.36
80620;BME280;69979;53.682;-2.690;2024-01-16T11:52:57;99988.46;;;1.30;62.91
80620;BME280;69979;53.682;-2.690;2024-01-16T11:55:25;99987.53;;;1.54;61.45
80620;BME280;69979;53.682;-2.690;2024-01-16T11:58:02;99983.61;;;1.61;61.30
80620;BME280;69979;53.682;-2.690;2024-01-16T12:00:19;99979.07;;;2.66;58.52
80620;BME280;69979;53.682;-2.690;2024-01-16T12:02:50;99971.68;;;2.26;58.47
80620;BME280;69979;53.682;-2.690;2024-01-16T12:05:03;99968.73;;;1.39;60.84
80620;BME280;69979;53.682;-2.690;2024-01-16T12:07:27;99967.97;;;1.89;59.78
80620;BME280;69979;53.682;-2.690;2024-01-16T12:09:52;99967.39;;;2.83;58.16
80620;BME280;69979;53.682;-2.690;2024-01-16T12:12:18;99957.77;;;2.10;59.62
80620;BME280;69979;53.682;-2.690;2024-01-16T12:14:52;99961.64;;;1.12;61.46
80620;BME280;69979;53.682;-2.690;2024-01-16T12:17:10;99955.31;;;0.67;62.81
80620;BME280;69979;53.682;-2.690;2024-01-16T12:19:35;99944.60;;;1.06;62.43
80620;BME280;69979;53.682;-2.690;2024-01-16T12:22:01;99944.16;;;0.88;63.62
80620;BME280;69979;53.682;-2.690;2024-01-16T12:24:27;99942.60;;;1.48;63.03
80620;BME280;69979;53.682;-2.690;2024-01-16T12:26:57;99941.07;;;0.56;63.83
80620;BME280;69979;53.682;-2.690;2024-01-16T12:29:18;99936.07;;;0.21;65.23
80620;BME280;69979;53.682;-2.690;2024-01-16T12:31:44;99931.56;;;0.50;65.79
80620;BME280;69979;53.682;-2.690;2024-01-16T12:34:10;99920.98;;;0.68;66.31
80620;BME280;69979;53.682;-2.690;2024-01-16T12:36:35;99922.40;;;0.25;67.13
80620;BME280;69979;53.682;-2.690;2024-01-16T12:39:00;99912.40;;;-0.00;68.73
80620;BME280;69979;53.682;-2.690;2024-01-16T12:41:26;99904.54;;;-0.92;71.80
80620;BME280;69979;53.682;-2.690;2024-01-16T12:43:50;99899.74;;;-0.14;69.91
80620;BME280;69979;53.682;-2.690;2024-01-16T12:46:14;99889.12;;;0.01;69.22